Time;durP1;ratioP1;P1;durP2;ratioP2;P2;SDS_P1;SDS_P2;PMS_P1;PMS_P2;Temp;Humidity;BMP_temperature;BMP_pressure;BME280_temperature;BME280_humidity;BME280_pressure;Samples;Min_cycle;Max_cycle;Signal;HPM_P1;HPM_P2
2022/11/03 00:01:15;;;;;;;15.53;3.47;;;14.00;1.00;;;;;;5025942;28;20276;-87
2022/11/03 00:03:41;;;;;;;12.23;2.97;;;14.00;1.00;;;;;;5021899;28;20182;-91
2022/11/03 00:06:08;;;;;;;13.40;3.17;;;14.00;1.00;;;;;;5025942;28;20187;-90
2022/11/03 00:08:41;;;;;;;10.90;2.80;;;14.00;1.00;;;;;;5021132;28;20231;-78
2022/11/03 00:11:12;;;;;;;8.87;2.80;;;14.00;1.00;;;;;;5016348;28;20273;-79
2022/11/03 00:13:39;;;;;;;7.57;2.33;;;14.00;1.00;;;;;;5015933;28;20586;-79
2022/11/03 00:16:06;;;;;;;10.30;3.00;;;14.00;1.00;;;;;;5015969;28;20220;-78
2022/11/03 00:18:31;;;;;;;10.87;3.00;;;14.00;1.00;;;;;;5016846;28;20195;-80
2022/11/03 00:21:05;;;;;;;9.03;2.43;;;14.00;1.00;;;;;;5016693;28;20540;-80
2022/11/03 00:23:37;;;;;;;8.37;2.77;;;14.00;1.00;;;;;;5016161;28;20192;-80
2022/11/03 00:26:09;;;;;;;11.70;3.10;;;14.00;1.00;;;;;;4998909;28;20254;-78
2022/11/03 00:28:35;;;;;;;8.40;2.43;;;14.00;1.00;;;;;;5016625;28;20212;-79
2022/11/03 00:31:09;;;;;;;7.63;2.43;;;14.00;1.00;;;;;;5015730;28;20178;-81
2022/11/03 00:33:37;;;;;;;11.63;3.20;;;13.90;1.00;;;;;;5015852;28;20224;-79
2022/11/03 00:36:05;;;;;;;11.27;2.63;;;14.00;1.00;;;;;;5015910;28;20204;-78
2022/11/03 00:38:31;;;;;;;11.77;2.73;;;14.00;1.00;;;;;;5015645;28;20169;-79
2022/11/03 00:41:00;;;;;;;10.07;2.80;;;14.00;1.00;;;;;;5014659;28;20195;-78
2022/11/03 00:43:27;;;;;;;11.17;2.40;;;14.00;1.00;;;;;;5015888;28;20172;-79
2022/11/03 00:45:59;;;;;;;8.67;2.40;;;14.00;1.00;;;;;;5017034;28;20262;-88
2022/11/03 00:48:28;;;;;;;14.07;2.90;;;14.10;1.00;;;;;;5018503;28;20176;-88
2022/11/03 00:50:58;;;;;;;9.83;2.80;;;14.20;1.00;;;;;;5017818;28;20612;-88
2022/11/03 00:53:24;;;;;;;9.23;2.87;;;14.10;1.00;;;;;;5017420;28;20196;-88
2022/11/03 00:55:50;;;;;;;11.70;3.00;;;14.00;1.00;;;;;;5020608;28;20266;-80
2022/11/03 00:58:15;;;;;;;9.57;2.73;;;14.20;1.00;;;;;;5020706;28;20703;-89
2022/11/03 01:00:41;;;;;;;10.13;2.70;;;14.10;1.00;;;;;;5018888;28;20183;-85
2022/11/03 01:03:07;;;;;;;9.67;2.93;;;14.10;1.00;;;;;;5016188;28;20159;-90
2022/11/03 01:08:16;;;;;;;14.63;2.93;;;13.90;1.00;;;;;;5020497;28;20250;-88
2022/11/03 01:11:42;;;;;;;8.83;3.00;;;14.00;1.00;;;;;;5019832;28;20176;-89
2022/11/03 01:13:27;;;;;;;9.43;3.07;;;14.00;1.00;;;;;;5024548;28;20190;-81
2022/11/03 01:15:57;;;;;;;10.60;3.10;;;13.90;1.00;;;;;;5028219;28;20227;-89
2022/11/03 01:18:24;;;;;;;8.20;2.43;;;13.90;1.00;;;;;;5030704;28;20197;-89
2022/11/03 01:20:56;;;;;;;11.50;2.60;;;13.90;1.00;;;;;;5033388;28;20188;-87
2022/11/03 01:23:23;;;;;;;8.37;2.63;;;13.90;1.00;;;;;;5032024;28;20184;-88
2022/11/03 01:25:49;;;;;;;9.27;3.10;;;13.90;1.00;;;;;;5024607;28;20192;-84
2022/11/03 01:28:15;;;;;;;11.83;3.40;;;13.90;1.00;;;;;;5020164;28;20181;-84
2022/11/03 01:30:41;;;;;;;10.60;2.80;;;13.90;1.00;;;;;;5031710;28;20174;-77
2022/11/03 01:33:09;;;;;;;12.30;2.73;;;13.90;1.10;;;;;;5026951;28;20712;-84
2022/11/03 01:35:36;;;;;;;9.67;2.70;;;14.00;2.10;;;;;;5023393;28;20209;-88
2022/11/03 01:38:02;;;;;;;6.87;2.60;;;13.90;3.10;;;;;;5025147;28;20175;-86
2022/11/03 01:40:27;;;;;;;11.40;2.67;;;14.00;4.10;;;;;;5028596;28;20173;-88
2022/11/03 01:42:53;;;;;;;11.87;3.50;;;14.00;4.40;;;;;;5025125;28;20183;-89
2022/11/03 01:45:20;;;;;;;8.97;2.40;;;13.90;4.70;;;;;;5020837;28;20319;-82
2022/11/03 01:47:46;;;;;;;9.30;2.57;;;13.90;5.90;;;;;;5025499;28;20230;-78
2022/11/03 01:50:18;;;;;;;8.17;2.60;;;13.90;7.30;;;;;;5022775;28;20168;-85
2022/11/03 01:52:53;;;;;;;7.63;2.70;;;13.90;8.30;;;;;;5017568;28;20166;-79
2022/11/03 01:55:23;;;;;;;11.70;2.90;;;14.00;6.40;;;;;;5016560;28;20254;-86
2022/11/03 01:57:56;;;;;;;9.27;2.50;;;13.90;7.40;;;;;;5016628;28;20202;-82
2022/11/03 02:00:22;;;;;;;9.57;2.80;;;13.90;9.40;;;;;;5015248;28;20190;-82
2022/11/03 02:02:50;;;;;;;9.40;2.50;;;13.90;11.60;;;;;;5015112;28;20201;-86
2022/11/03 02:05:17;;;;;;;7.57;2.37;;;14.00;11.90;;;;;;5018875;28;20206;-80
2022/11/03 02:08:21;;;;;;;9.17;2.53;;;13.90;12.80;;;;;;5015720;28;20172;-79
2022/11/03 02:10:48;;;;;;;8.00;2.40;;;13.80;14.20;;;;;;4988917;28;20188;-80
2022/11/03 02:13:25;;;;;;;8.80;2.70;;;13.80;15.80;;;;;;5013472;28;20638;-79
2022/11/03 02:15:59;;;;;;;9.90;2.87;;;13.80;17.30;;;;;;5014267;28;20194;-79
2022/11/03 02:18:31;;;;;;;8.67;2.37;;;13.80;18.50;;;;;;5014416;28;20343;-83
2022/11/03 02:21:14;;;;;;;9.13;2.63;;;13.80;19.40;;;;;;5015064;28;20177;-78
2022/11/03 02:23:53;;;;;;;10.93;3.53;;;13.80;20.10;;;;;;5017184;28;20184;-81
2022/11/03 02:26:19;;;;;;;7.10;2.47;;;14.00;20.90;;;;;;5018157;28;20171;-80
2022/11/03 02:28:45;;;;;;;10.70;3.00;;;13.90;22.80;;;;;;5019157;28;20716;-79
2022/11/03 02:31:13;;;;;;;9.77;2.27;;;13.90;22.60;;;;;;5013947;28;20180;-79
2022/11/03 02:33:53;;;;;;;8.70;2.70;;;13.90;22.30;;;;;;5013615;28;20175;-80
2022/11/03 02:36:19;;;;;;;9.47;2.40;;;13.90;23.40;;;;;;5013276;28;20301;-79
2022/11/03 02:38:58;;;;;;;9.87;2.70;;;13.90;23.70;;;;;;5013896;28;20206;-81
2022/11/03 02:41:24;;;;;;;9.40;2.80;;;13.90;25.60;;;;;;5012710;28;20610;-82
2022/11/03 02:43:53;;;;;;;8.57;2.17;;;13.90;25.90;;;;;;5014335;28;20180;-84
2022/11/03 02:46:19;;;;;;;13.20;3.03;;;13.90;27.60;;;;;;5014248;28;20173;-82
2022/11/03 02:48:46;;;;;;;9.60;2.80;;;13.90;27.30;;;;;;5013514;28;20188;-80
2022/11/03 02:51:12;;;;;;;7.87;2.27;;;13.90;27.20;;;;;;5013405;28;20162;-80
2022/11/03 02:53:45;;;;;;;10.50;2.37;;;13.90;29.10;;;;;;5013424;28;20253;-82
2022/11/03 02:56:17;;;;;;;8.50;2.53;;;13.90;29.90;;;;;;5013638;28;20227;-81
2022/11/03 02:58:54;;;;;;;9.37;2.87;;;13.90;31.00;;;;;;5013298;28;20169;-82
2022/11/03 03:01:31;;;;;;;8.27;2.40;;;13.90;31.60;;;;;;5013165;28;20631;-79
2022/11/03 03:04:04;;;;;;;9.27;2.80;;;14.00;30.90;;;;;;5013434;28;20252;-82
2022/11/03 03:06:35;;;;;;;8.57;2.40;;;14.00;30.70;;;;;;5013382;28;20636;-83
2022/11/03 03:09:06;;;;;;;7.73;2.63;;;14.00;32.90;;;;;;5012964;28;20208;-81
2022/11/03 03:11:37;;;;;;;8.77;2.60;;;14.00;31.50;;;;;;5013275;28;20184;-81
2022/11/03 03:14:11;;;;;;;13.13;2.87;;;14.00;32.70;;;;;;5013530;28;20174;-79
2022/11/03 03:16:59;;;;;;;11.13;3.10;;;14.00;35.40;;;;;;5013353;28;20316;-79
2022/11/03 03:19:55;;;;;;;9.13;2.93;;;14.00;35.20;;;;;;5015324;28;20189;-81
2022/11/03 03:22:27;;;;;;;10.43;2.70;;;14.00;37.00;;;;;;5019062;28;20176;-78
2022/11/03 03:25:04;;;;;;;10.27;2.70;;;14.00;37.80;;;;;;5020334;28;20196;-77
2022/11/03 03:27:33;;;;;;;7.63;2.90;;;14.00;38.30;;;;;;5019489;28;20172;-76
2022/11/03 03:30:10;;;;;;;7.63;2.53;;;14.00;39.10;;;;;;5019754;28;20252;-78
2022/11/03 03:32:39;;;;;;;9.43;2.60;;;14.00;40.00;;;;;;5019529;28;20188;-79
2022/11/03 03:35:18;;;;;;;8.37;2.60;;;14.00;39.60;;;;;;5017462;28;20209;-78
2022/11/03 03:37:50;;;;;;;8.60;3.27;;;14.00;39.60;;;;;;5016503;28;20211;-79
2022/11/03 03:40:28;;;;;;;5.07;2.13;;;14.00;40.50;;;;;;5017275;28;20165;-78
2022/11/03 03:43:02;;;;;;;6.57;2.37;;;14.00;41.20;;;;;;5016566;28;20176;-79
2022/11/03 03:45:35;;;;;;;9.33;2.50;;;14.10;42.40;;;;;;5016221;28;20605;-82
2022/11/03 03:48:01;;;;;;;9.03;2.70;;;14.10;41.80;;;;;;5015357;28;20547;-80
2022/11/03 03:50:31;;;;;;;6.83;2.40;;;14.10;42.40;;;;;;5016439;28;20251;-78
2022/11/03 03:53:00;;;;;;;11.47;2.60;;;14.10;42.20;;;;;;5016209;28;20195;-78
2022/11/03 03:55:37;;;;;;;8.40;2.63;;;14.10;44.00;;;;;;5014903;28;20177;-79
2022/11/03 03:58:06;;;;;;;10.20;2.57;;;14.10;44.80;;;;;;5019198;28;20244;-78
2022/11/03 04:00:32;;;;;;;7.87;2.40;;;14.10;46.00;;;;;;5015838;28;20165;-77
2022/11/03 04:02:59;;;;;;;8.67;2.63;;;14.20;47.00;;;;;;5015386;28;20180;-77
2022/11/03 04:05:25;;;;;;;8.70;2.33;;;14.10;47.10;;;;;;5015721;28;20163;-78
2022/11/03 04:07:51;;;;;;;9.37;2.87;;;14.10;48.30;;;;;;5015295;28;20165;-83
2022/11/03 04:10:20;;;;;;;9.57;3.17;;;14.30;47.80;;;;;;5013793;28;20528;-78
2022/11/03 04:23:43;;;;;;;8.47;2.20;;;14.20;46.90;;;;;;5015067;28;20195;-79
2022/11/03 04:26:13;;;;;;;11.37;3.00;;;14.20;47.10;;;;;;5014206;28;20170;-78
2022/11/03 04:28:41;;;;;;;7.13;2.43;;;14.20;48.60;;;;;;5015255;28;20167;-80
2022/11/03 04:31:13;;;;;;;10.63;3.10;;;14.20;47.50;;;;;;5014848;28;20541;-80
2022/11/03 04:33:40;;;;;;;7.77;2.50;;;14.30;46.20;;;;;;5019007;28;20168;-88
2022/11/03 04:36:25;;;;;;;10.10;2.47;;;14.20;46.00;;;;;;5019192;28;20192;-86
2022/11/03 04:38:51;;;;;;;11.10;2.83;;;14.20;48.10;;;;;;5022900;28;20172;-80
2022/11/03 04:41:24;;;;;;;8.00;2.50;;;14.20;49.90;;;;;;5025681;28;20173;-82
2022/11/03 04:43:51;;;;;;;8.10;2.73;;;14.20;51.40;;;;;;5023308;28;20198;-79
2022/11/03 04:46:26;;;;;;;10.03;2.67;;;14.20;51.80;;;;;;5021037;28;20312;-85
2022/11/03 04:48:53;;;;;;;6.40;2.60;;;14.20;51.30;;;;;;5020411;28;20157;-89
2022/11/03 04:51:23;;;;;;;11.17;2.73;;;14.20;50.80;;;;;;5018121;28;20253;-81
2022/11/03 04:54:05;;;;;;;9.13;2.47;;;14.20;51.70;;;;;;5018643;28;20189;-88
2022/11/03 04:56:32;;;;;;;8.53;2.93;;;14.20;51.30;;;;;;5019084;28;20217;-85
2022/11/03 04:58:58;;;;;;;7.77;3.00;;;14.30;51.90;;;;;;5019324;28;20162;-88
2022/11/03 05:01:24;;;;;;;10.00;2.73;;;14.20;51.40;;;;;;5021373;28;20200;-89
2022/11/03 05:03:52;;;;;;;10.17;2.90;;;14.20;51.50;;;;;;5019596;28;20169;-87
2022/11/03 05:06:27;;;;;;;9.73;2.47;;;14.20;51.80;;;;;;5017927;28;20177;-88
2022/11/03 05:09:00;;;;;;;8.90;2.90;;;14.20;51.30;;;;;;5015817;28;20181;-88
2022/11/03 05:11:38;;;;;;;9.33;2.80;;;14.30;49.80;;;;;;5019893;28;20174;-88
2022/11/03 05:14:32;;;;;;;10.03;2.93;;;14.30;48.70;;;;;;5020974;28;20216;-87
2022/11/03 05:17:00;;;;;;;9.37;3.27;;;14.30;51.20;;;;;;5019230;28;20251;-86
2022/11/03 05:19:39;;;;;;;10.77;3.13;;;14.20;50.10;;;;;;5022108;28;20202;-78
2022/11/03 05:22:14;;;;;;;7.80;2.90;;;14.20;51.00;;;;;;5022025;28;20717;-87
2022/11/03 05:24:43;;;;;;;7.97;2.63;;;14.20;51.50;;;;;;5018773;28;20200;-89
2022/11/03 05:27:19;;;;;;;6.07;2.67;;;14.20;52.60;;;;;;5017077;28;20173;-85
2022/11/03 05:29:46;;;;;;;9.17;2.73;;;14.10;54.90;;;;;;5021229;28;20173;-89
2022/11/03 05:32:20;;;;;;;11.10;3.40;;;14.20;54.60;;;;;;5019442;28;20189;-89
2022/11/03 05:34:48;;;;;;;9.07;2.67;;;14.10;56.40;;;;;;5017050;28;20262;-89
2022/11/03 05:37:34;;;;;;;11.40;3.23;;;14.10;54.60;;;;;;5016421;28;20291;-87
2022/11/03 05:40:21;;;;;;;10.27;3.23;;;14.10;54.30;;;;;;5015213;28;20637;-89
2022/11/03 05:42:52;;;;;;;12.10;3.33;;;14.10;55.40;;;;;;5016523;28;20163;-88
2022/11/03 05:45:33;;;;;;;9.40;2.90;;;14.10;56.20;;;;;;5018050;28;20223;-89
2022/11/03 05:48:02;;;;;;;11.00;3.20;;;14.10;56.90;;;;;;5016644;28;20177;-88
2022/11/03 05:50:32;;;;;;;8.63;2.73;;;14.20;53.80;;;;;;5016889;28;20179;-83
2022/11/03 05:53:09;;;;;;;7.53;2.50;;;14.10;54.50;;;;;;5019433;28;20181;-86
2022/11/03 05:55:35;;;;;;;13.00;3.37;;;14.20;55.70;;;;;;5019195;28;20192;-89
2022/11/03 05:58:35;;;;;;;9.07;2.57;;;14.10;55.30;;;;;;5018709;28;20193;-81
2022/11/03 06:01:09;;;;;;;7.93;3.10;;;14.10;53.80;;;;;;5013917;28;20182;-88
2022/11/03 06:03:36;;;;;;;9.57;3.27;;;14.00;56.70;;;;;;5018177;28;20660;-88
2022/11/03 06:06:29;;;;;;;10.57;3.53;;;14.00;56.70;;;;;;5019973;28;20166;-87
2022/11/03 06:08:56;;;;;;;8.80;3.03;;;14.10;56.20;;;;;;5011722;28;20196;-88
2022/11/03 06:11:30;;;;;;;9.73;3.30;;;14.00;55.10;;;;;;5023768;28;20172;-89
2022/11/03 06:13:57;;;;;;;10.47;2.93;;;14.00;55.00;;;;;;5025912;28;20185;-82
2022/11/03 06:16:40;;;;;;;11.43;3.20;;;13.80;56.30;;;;;;5029469;28;20196;-88
2022/11/03 06:19:31;;;;;;;10.33;3.07;;;14.00;55.50;;;;;;5029129;28;20642;-88
2022/11/03 06:22:05;;;;;;;10.67;3.17;;;14.00;56.80;;;;;;5031893;28;20181;-86
2022/11/03 06:24:32;;;;;;;11.57;3.00;;;14.00;53.60;;;;;;5031644;28;20216;-89
2022/11/03 06:26:59;;;;;;;12.17;3.43;;;14.00;53.80;;;;;;5032112;28;20642;-78
2022/11/03 06:29:31;;;;;;;8.20;2.87;;;14.00;53.20;;;;;;5019771;28;20166;-77
2022/11/03 06:31:58;;;;;;;12.77;3.70;;;13.90;53.60;;;;;;5021851;28;20206;-79
2022/11/03 06:34:42;;;;;;;11.80;3.10;;;13.90;53.50;;;;;;5022500;28;20167;-78
2022/11/03 06:37:20;;;;;;;10.40;2.80;;;13.90;55.10;;;;;;5024700;28;20205;-78
2022/11/03 06:39:47;;;;;;;15.10;3.20;;;13.90;55.00;;;;;;5019489;28;20172;-79
2022/11/03 06:42:14;;;;;;;8.97;3.17;;;13.90;54.90;;;;;;5023539;28;20170;-78
2022/11/03 06:44:46;;;;;;;9.57;3.13;;;13.80;55.50;;;;;;5024301;28;20158;-79
2022/11/03 06:47:22;;;;;;;9.67;3.10;;;13.90;56.30;;;;;;5022983;28;20166;-77
2022/11/03 06:49:57;;;;;;;9.77;3.40;;;13.80;56.30;;;;;;5019969;28;20200;-78
2022/11/03 06:52:32;;;;;;;13.20;3.57;;;13.80;55.10;;;;;;5022540;28;20175;-79
2022/11/03 06:55:06;;;;;;;8.93;3.17;;;14.00;54.50;;;;;;5030329;28;20260;-78
2022/11/03 06:57:36;;;;;;;8.37;2.97;;;13.90;53.50;;;;;;5023102;28;20294;-78
2022/11/03 07:00:16;;;;;;;12.17;3.47;;;13.90;50.20;;;;;;5026419;28;20159;-78
2022/11/03 07:03:06;;;;;;;7.50;3.07;;;13.80;50.10;;;;;;5033423;28;20188;-77
2022/11/03 07:05:34;;;;;;;11.77;3.77;;;13.90;50.60;;;;;;5039232;28;20202;-77
2022/11/03 07:08:08;;;;;;;11.77;3.33;;;13.90;48.30;;;;;;5032350;28;20161;-78
2022/11/03 07:10:37;;;;;;;17.70;3.60;;;13.90;47.80;;;;;;5024115;28;20703;-79
2022/11/03 07:13:28;;;;;;;13.60;3.60;;;14.00;45.30;;;;;;5033927;28;20166;-80
2022/11/03 07:15:53;;;;;;;12.70;3.20;;;14.10;42.20;;;;;;5022874;28;20173;-79
2022/11/03 07:18:22;;;;;;;13.33;3.73;;;14.10;41.60;;;;;;5020468;28;20265;-79
2022/11/03 07:20:49;;;;;;;8.83;3.10;;;14.10;38.60;;;;;;5017820;28;20208;-81
2022/11/03 07:23:20;;;;;;;10.63;3.30;;;14.10;36.20;;;;;;5018018;28;20191;-81
2022/11/03 07:25:53;;;;;;;9.77;2.90;;;14.20;34.30;;;;;;5018879;28;20158;-80
2022/11/03 07:28:32;;;;;;;12.20;3.67;;;14.10;32.00;;;;;;5018766;28;20158;-79
2022/11/03 07:31:01;;;;;;;11.40;3.13;;;14.20;28.90;;;;;;5017608;28;20621;-80
2022/11/03 07:33:30;;;;;;;11.97;3.07;;;14.10;28.30;;;;;;5018315;28;20523;-80
2022/11/03 07:35:57;;;;;;;9.33;3.23;;;14.10;28.60;;;;;;5018224;28;20205;-81
2022/11/03 07:38:24;;;;;;;8.57;2.87;;;14.10;27.90;;;;;;5019739;28;20225;-80
2022/11/03 07:40:55;;;;;;;10.30;3.50;;;14.10;29.00;;;;;;5017120;28;20262;-80
2022/11/03 07:43:34;;;;;;;7.50;2.80;;;14.00;27.40;;;;;;5016129;28;20232;-79
2022/11/03 07:46:03;;;;;;;12.73;3.27;;;14.10;27.20;;;;;;5015957;28;20653;-81
2022/11/03 07:48:53;;;;;;;6.87;2.60;;;14.10;24.80;;;;;;5015870;28;20175;-78
2022/11/03 07:51:28;;;;;;;9.30;2.97;;;14.10;23.40;;;;;;5016845;28;20616;-80
2022/11/03 07:54:19;;;;;;;8.37;2.43;;;14.20;25.00;;;;;;5016589;28;20180;-81
2022/11/03 07:56:57;;;;;;;12.40;3.23;;;14.20;21.70;;;;;;5013427;28;20230;-79
2022/11/03 07:59:39;;;;;;;13.10;3.63;;;14.30;20.10;;;;;;5015351;28;21539;-82
2022/11/03 08:02:29;;;;;;;12.47;3.40;;;14.30;18.60;;;;;;5017238;28;20189;-79
2022/11/03 08:05:00;;;;;;;11.67;3.20;;;14.40;17.30;;;;;;5016319;28;20531;-79
2022/11/03 08:07:27;;;;;;;9.80;3.83;;;14.50;14.20;;;;;;5016127;28;20485;-80
2022/11/03 08:09:54;;;;;;;9.13;3.90;;;14.40;13.50;;;;;;5005312;28;20173;-82
2022/11/03 08:12:22;;;;;;;11.70;3.97;;;14.20;16.50;;;;;;5004932;28;20563;-79
2022/11/03 08:14:49;;;;;;;10.90;3.73;;;14.50;13.30;;;;;;5015947;28;20197;-82
2022/11/03 08:17:25;;;;;;;9.43;3.27;;;14.50;9.60;;;;;;5016284;28;20296;-78
2022/11/03 08:19:51;;;;;;;9.07;3.50;;;14.40;10.70;;;;;;5024565;28;20583;-91
2022/11/03 08:22:24;;;;;;;9.93;3.13;;;14.30;8.50;;;;;;5026771;28;20267;-86
2022/11/03 08:24:52;;;;;;;11.17;3.20;;;14.20;11.80;;;;;;5029002;28;20190;-87
2022/11/03 08:27:20;;;;;;;10.73;3.60;;;14.20;13.30;;;;;;5026932;28;20590;-88
2022/11/03 08:29:46;;;;;;;8.93;3.20;;;14.20;10.90;;;;;;5029148;28;20178;-91
2022/11/03 08:32:11;;;;;;;9.73;2.80;;;14.20;11.50;;;;;;5027404;28;20253;-90
2022/11/03 08:34:38;;;;;;;8.73;3.13;;;14.20;10.40;;;;;;5025231;28;20190;-82
2022/11/03 08:37:04;;;;;;;6.83;3.10;;;14.30;8.90;;;;;;5009867;28;20217;-79
2022/11/03 08:39:30;;;;;;;10.40;2.80;;;14.30;7.60;;;;;;5003602;28;20357;-89
2022/11/03 08:41:55;;;;;;;7.53;2.70;;;14.30;8.10;;;;;;5014451;28;20181;-90
2022/11/03 08:44:21;;;;;;;10.47;3.00;;;14.40;5.40;;;;;;5026525;28;20669;-88
2022/11/03 08:46:47;;;;;;;8.67;3.43;;;14.30;5.40;;;;;;5034229;28;20165;-86
2022/11/03 08:49:12;;;;;;;10.60;2.40;;;14.40;4.50;;;;;;5037640;28;20143;-86
2022/11/03 08:51:39;;;;;;;7.23;2.90;;;14.30;5.00;;;;;;5035261;28;20191;-85
2022/11/03 08:54:06;;;;;;;10.67;3.10;;;14.20;7.30;;;;;;5028268;28;20513;-89
2022/11/03 08:56:31;;;;;;;8.97;2.93;;;14.30;7.10;;;;;;5030154;28;20240;-80
2022/11/03 08:58:57;;;;;;;8.60;3.07;;;14.20;7.80;;;;;;5028705;28;20163;-81
2022/11/03 09:01:24;;;;;;;9.90;3.13;;;14.50;4.70;;;;;;5030140;28;20209;-88
2022/11/03 09:03:49;;;;;;;10.13;2.80;;;14.30;4.60;;;;;;5023206;28;20189;-79
2022/11/03 09:06:15;;;;;;;7.97;3.00;;;14.40;6.50;;;;;;5020336;28;20192;-87
2022/11/03 09:08:41;;;;;;;6.97;2.80;;;14.30;5.80;;;;;;5023492;28;20157;-88
2022/11/03 09:11:08;;;;;;;6.40;2.47;;;14.30;6.20;;;;;;5016973;28;20223;-83
2022/11/03 09:13:33;;;;;;;8.20;2.80;;;14.30;6.70;;;;;;5023304;28;20563;-81
2022/11/03 09:15:59;;;;;;;9.10;2.77;;;14.30;6.40;;;;;;5021028;28;20216;-83
2022/11/03 09:18:25;;;;;;;7.03;2.70;;;14.30;4.30;;;;;;5019979;28;20174;-91
2022/11/03 09:20:51;;;;;;;6.53;2.43;;;14.40;3.40;;;;;;5023244;28;20755;-91
2022/11/03 09:23:17;;;;;;;7.50;3.17;;;14.40;2.70;;;;;;5021339;28;20201;-90
2022/11/03 09:25:44;;;;;;;8.97;2.80;;;14.60;1.00;;;;;;5021565;28;20201;-89
2022/11/03 09:28:10;;;;;;;8.63;2.93;;;14.70;1.00;;;;;;5021130;28;20178;-89
2022/11/03 09:30:36;;;;;;;8.37;2.80;;;14.70;1.00;;;;;;5032282;28;20205;-85
2022/11/03 09:33:01;;;;;;;10.20;3.00;;;14.90;1.00;;;;;;5035557;28;20190;-80
2022/11/03 09:35:27;;;;;;;7.37;2.50;;;15.00;1.00;;;;;;5036403;28;20225;-84
2022/11/03 09:37:55;;;;;;;7.27;2.90;;;15.10;1.00;;;;;;5032487;28;20221;-82
2022/11/03 09:40:21;;;;;;;6.83;2.70;;;15.30;1.00;;;;;;5012303;28;20207;-87
2022/11/03 09:42:48;;;;;;;7.03;2.50;;;15.30;1.00;;;;;;5017764;28;20197;-91
2022/11/03 09:45:14;;;;;;;7.80;2.77;;;15.30;1.00;;;;;;5017721;28;20175;-89
2022/11/03 09:47:47;;;;;;;7.13;2.23;;;15.40;1.00;;;;;;5016374;28;20181;-90
2022/11/03 09:50:20;;;;;;;8.00;3.03;;;15.20;1.00;;;;;;5016640;28;20170;-91
2022/11/03 09:52:51;;;;;;;8.17;3.20;;;15.50;1.00;;;;;;5018933;28;20642;-85
2022/11/03 09:55:24;;;;;;;9.43;2.90;;;15.50;1.00;;;;;;5018215;28;20167;-82
2022/11/03 09:58:32;;;;;;;7.87;2.80;;;15.50;1.00;;;;;;4998856;28;20697;-80
2022/11/03 10:01:02;;;;;;;11.87;3.47;;;15.50;1.00;;;;;;5001943;28;20179;-91
2022/11/03 10:03:28;;;;;;;8.67;2.63;;;15.40;1.00;;;;;;4998014;28;20238;-89
2022/11/03 10:05:55;;;;;;;6.37;2.30;;;15.50;1.00;;;;;;4996604;28;20265;-89
2022/11/03 10:08:24;;;;;;;7.73;2.60;;;15.40;1.00;;;;;;5014406;28;20684;-88
2022/11/03 10:10:50;;;;;;;6.80;2.30;;;15.50;1.00;;;;;;5019888;28;20645;-86
2022/11/03 10:13:29;;;;;;;8.40;2.70;;;15.30;1.00;;;;;;5013886;28;20210;-85
2022/11/03 10:15:55;;;;;;;7.93;3.13;;;15.40;1.00;;;;;;5015100;28;20178;-87
2022/11/03 10:18:22;;;;;;;7.67;2.90;;;15.50;1.00;;;;;;5015625;28;20162;-80
2022/11/03 10:20:48;;;;;;;7.37;2.80;;;15.50;1.00;;;;;;5019123;28;20167;-83
2022/11/03 10:23:13;;;;;;;8.73;2.50;;;15.50;1.00;;;;;;5011973;28;20264;-82
2022/11/03 10:25:44;;;;;;;8.70;3.03;;;15.70;1.00;;;;;;5000298;28;20320;-90
2022/11/03 10:28:17;;;;;;;7.53;3.20;;;15.80;1.00;;;;;;4995260;28;20182;-90
2022/11/03 10:30:57;;;;;;;6.17;2.37;;;16.00;1.00;;;;;;4999337;28;20159;-80
2022/11/03 10:33:40;;;;;;;6.70;2.20;;;16.00;1.00;;;;;;4999322;28;20301;-83
2022/11/03 10:36:15;;;;;;;7.70;2.30;;;16.00;1.00;;;;;;4998910;28;20209;-88
2022/11/03 10:38:42;;;;;;;8.77;2.43;;;15.90;1.00;;;;;;5002846;28;20208;-84
2022/11/03 10:41:15;;;;;;;7.87;2.57;;;15.80;1.00;;;;;;5033549;28;20162;-88
2022/11/03 10:43:43;;;;;;;6.30;2.33;;;16.00;1.00;;;;;;5019806;28;20190;-82
2022/11/03 10:46:15;;;;;;;6.37;2.50;;;16.00;1.00;;;;;;5020426;28;20167;-80
2022/11/03 10:48:41;;;;;;;8.13;2.93;;;16.00;1.00;;;;;;5003858;28;20197;-82
2022/11/03 10:51:11;;;;;;;7.07;2.80;;;16.00;1.00;;;;;;4999886;28;20167;-90
2022/11/03 10:53:38;;;;;;;6.83;3.00;;;16.10;1.00;;;;;;5017510;28;20589;-86
2022/11/03 10:56:04;;;;;;;7.47;2.70;;;16.20;1.00;;;;;;5018068;28;20209;-82
2022/11/03 10:58:31;;;;;;;6.93;2.80;;;16.10;1.00;;;;;;5019932;28;20192;-89
2022/11/03 11:00:56;;;;;;;8.47;2.70;;;16.00;1.00;;;;;;5020582;28;20170;-87
2022/11/03 11:03:23;;;;;;;7.13;2.57;;;16.10;1.00;;;;;;5025364;28;20189;-80
2022/11/03 11:05:50;;;;;;;6.60;2.27;;;16.00;1.00;;;;;;5025668;28;20190;-80
2022/11/03 11:08:22;;;;;;;8.33;2.60;;;16.10;1.00;;;;;;5019341;28;20179;-81
2022/11/03 11:10:48;;;;;;;7.23;2.20;;;16.10;1.00;;;;;;5030568;28;20167;-80
2022/11/03 11:13:17;;;;;;;7.87;2.63;;;16.10;1.00;;;;;;5031738;28;20185;-85
2022/11/03 11:15:47;;;;;;;4.07;1.80;;;16.10;1.00;;;;;;5022597;28;20175;-82
2022/11/03 11:18:28;;;;;;;4.23;2.00;;;16.10;1.00;;;;;;5027174;28;20166;-85
2022/11/03 11:20:54;;;;;;;7.20;2.27;;;16.10;1.00;;;;;;5025129;28;20174;-88
2022/11/03 11:23:26;;;;;;;5.60;2.50;;;16.20;1.00;;;;;;5023301;28;20180;-80
2022/11/03 11:26:15;;;;;;;8.20;2.30;;;16.20;1.00;;;;;;5034672;28;20176;-84
2022/11/03 11:28:47;;;;;;;7.17;2.50;;;16.20;1.00;;;;;;5037977;28;20174;-83
2022/11/03 11:31:46;;;;;;;8.57;2.10;;;16.30;1.00;;;;;;5037634;28;20204;-81
2022/11/03 11:34:17;;;;;;;5.83;1.73;;;16.30;1.00;;;;;;5039274;28;20185;-83
2022/11/03 11:37:10;;;;;;;5.70;1.83;;;16.10;1.00;;;;;;5036673;28;20229;-81
2022/11/03 11:39:43;;;;;;;6.07;1.77;;;16.30;1.00;;;;;;5025712;28;20672;-81
2022/11/03 11:42:20;;;;;;;5.90;2.10;;;16.50;1.00;;;;;;5025099;28;20169;-79
2022/11/03 11:44:49;;;;;;;4.00;1.80;;;16.70;1.00;;;;;;5018602;28;20179;-82
2022/11/03 11:47:26;;;;;;;6.20;2.07;;;16.80;1.00;;;;;;5016274;28;20708;-81
2022/11/03 11:50:10;;;;;;;5.80;2.03;;;17.10;1.00;;;;;;5015520;28;20266;-80
2022/11/03 11:53:00;;;;;;;8.77;2.40;;;17.10;1.00;;;;;;5015817;28;20223;-80
2022/11/03 11:55:39;;;;;;;8.07;2.30;;;17.10;1.00;;;;;;5017062;28;20202;-80
2022/11/03 11:58:32;;;;;;;5.83;2.10;;;17.10;1.00;;;;;;5017310;28;20216;-81
2022/11/03 12:01:19;;;;;;;6.37;1.87;;;17.00;1.00;;;;;;5002843;28;20186;-82
2022/11/03 12:03:45;;;;;;;3.80;1.80;;;16.90;1.00;;;;;;5015587;28;20257;-79
2022/11/03 12:06:14;;;;;;;8.20;2.20;;;16.80;1.00;;;;;;5016573;28;20205;-81
2022/11/03 12:08:42;;;;;;;5.53;2.30;;;16.80;1.00;;;;;;5016266;28;20254;-85
2022/11/03 12:11:12;;;;;;;8.80;2.80;;;16.90;1.00;;;;;;5014479;28;20181;-82
2022/11/03 12:13:43;;;;;;;5.13;1.90;;;16.90;1.00;;;;;;5018669;28;20171;-86
2022/11/03 12:16:32;;;;;;;6.90;2.60;;;16.90;1.00;;;;;;5017420;28;20673;-84
2022/11/03 12:19:36;;;;;;;5.70;2.37;;;16.90;1.00;;;;;;4999135;28;20251;-87
2022/11/03 12:22:09;;;;;;;6.00;1.90;;;16.90;1.00;;;;;;5018591;28;20174;-85
2022/11/03 12:24:49;;;;;;;7.23;2.07;;;16.80;1.00;;;;;;5017102;28;20197;-84
2022/11/03 12:27:24;;;;;;;6.70;2.50;;;16.80;1.00;;;;;;5018779;28;20178;-86
2022/11/03 12:29:57;;;;;;;5.70;2.23;;;16.80;1.00;;;;;;5016167;28;20177;-83
2022/11/03 12:32:22;;;;;;;4.13;1.93;;;16.80;1.00;;;;;;5014820;28;20168;-84
2022/11/03 12:34:49;;;;;;;5.97;1.90;;;16.70;1.00;;;;;;5020994;28;20650;-92
2022/11/03 12:37:15;;;;;;;5.10;1.90;;;16.60;1.00;;;;;;5019327;28;20201;-88
2022/11/03 12:39:42;;;;;;;5.43;2.30;;;16.40;1.00;;;;;;5015503;28;20180;-84
2022/11/03 12:42:09;;;;;;;5.77;1.93;;;16.20;1.00;;;;;;5018315;28;20199;-90
2022/11/03 12:44:35;;;;;;;5.17;2.60;;;16.00;1.00;;;;;;5016995;28;20228;-82
2022/11/03 12:47:01;;;;;;;5.00;2.30;;;16.00;1.00;;;;;;5006476;28;20222;-88
2022/11/03 12:49:26;;;;;;;6.63;2.40;;;16.00;1.00;;;;;;5001530;28;20220;-84
2022/11/03 12:51:54;;;;;;;8.77;2.47;;;16.00;1.00;;;;;;5018576;28;20186;-88
2022/11/03 12:54:22;;;;;;;5.33;2.10;;;16.00;1.00;;;;;;5004769;28;20238;-88
2022/11/03 12:56:49;;;;;;;5.67;2.17;;;15.80;1.00;;;;;;5003293;28;20239;-88
2022/11/03 12:59:15;;;;;;;7.80;3.53;;;15.70;1.00;;;;;;5003588;28;20241;-89
2022/11/03 13:01:41;;;;;;;7.60;3.27;;;15.50;1.00;;;;;;5005019;28;20184;-88
2022/11/03 13:04:08;;;;;;;6.83;2.77;;;15.40;3.30;;;;;;5001493;28;20167;-84
2022/11/03 13:06:33;;;;;;;6.50;2.60;;;15.30;8.30;;;;;;5000420;28;20182;-82
2022/11/03 13:08:59;;;;;;;4.77;2.30;;;15.40;14.40;;;;;;5001921;28;20562;-80
2022/11/03 13:14:10;;;;;;;6.00;2.47;;;15.30;18.50;;;;;;5007856;28;20254;-90
2022/11/03 13:16:36;;;;;;;7.20;2.70;;;15.40;18.10;;;;;;5007845;28;20205;-91
2022/11/03 13:19:02;;;;;;;7.23;2.37;;;15.40;19.40;;;;;;5005148;28;20212;-80
2022/11/03 13:21:28;;;;;;;6.17;2.30;;;15.30;18.60;;;;;;5003507;28;20196;-90
2022/11/03 13:23:55;;;;;;;5.13;2.57;;;15.40;16.10;;;;;;5007938;28;20193;-86
2022/11/03 13:26:20;;;;;;;5.50;2.30;;;15.30;17.20;;;;;;5006123;28;20199;-84